Time,TemperatureF,DewpointF,PressureIn,WindDirection,WindDirectionDegrees,WindSpeedMPH,WindSpeedGustMPH,Humidity,HourlyPrecipIn,Conditions,Clouds,dailyrainin,SolarRadiationWatts/m^2,SoftwareType,DateUTC
2013-03-30 00:13:00,45.0,27.0,-100.00,ENE,64,0.0,3.0,50,0.00,,,0.00,0.000000,,2013-03-30 04:13:00,
2013-03-30 00:23:00,45.0,27.0,-100.00,ENE,64,0.0,3.0,50,0.00,,,0.00,0.000000,,2013-03-30 04:23:00,
2013-03-30 00:33:00,45.0,27.0,-100.00,ENE,64,0.0,3.0,50,0.00,,,0.00,0.000000,,2013-03-30 04:33:00,
2013-03-30 00:43:00,45.0,27.0,-100.00,ENE,64,0.0,3.0,50,0.00,,,0.00,0.000000,,2013-03-30 04:43:00,
2013-03-30 00:52:00,41.0,26.0,-100.00,NE,46,0.0,2.0,55,0.00,,,0.00,0.000000,,2013-03-30 04:52:00,
2013-03-30 01:12:00,41.0,26.0,-100.00,NE,46,0.0,2.0,55,0.00,,,0.00,0.000000,,2013-03-30 05:12:00,
2013-03-30 01:22:00,41.0,26.0,-100.00,NE,46,0.0,2.0,55,0.00,,,0.00,0.000000,,2013-03-30 05:22:00,
2013-03-30 01:32:00,41.0,26.0,-100.00,NE,46,0.0,2.0,55,0.00,,,0.00,0.000000,,2013-03-30 05:32:00,
2013-03-30 01:42:00,41.0,26.0,-100.00,NE,46,0.0,2.0,55,0.00,,,0.00,0.000000,,2013-03-30 05:42:00,
2013-03-30 01:52:00,41.0,27.0,-100.00,NE,38,0.0,2.0,57,0.00,,,0.00,0.000000,,2013-03-30 05:52:00,
2013-03-30 02:12:00,41.0,27.0,-100.00,NE,38,0.0,2.0,57,0.00,,,0.00,0.000000,,2013-03-30 06:12:00,
2013-03-30 02:23:00,41.0,27.0,-100.00,NE,38,0.0,2.0,57,0.00,,,0.00,0.000000,,2013-03-30 06:23:00,
2013-03-30 02:32:00,41.0,27.0,-100.00,NE,38,0.0,2.0,57,0.00,,,0.00,0.000000,,2013-03-30 06:32:00,
2013-03-30 02:42:00,41.0,27.0,-100.00,NE,38,0.0,2.0,57,0.00,,,0.00,0.000000,,2013-03-30 06:42:00,
2013-03-30 02:52:00,37.0,27.0,-100.00,NE,45,0.0,2.0,68,0.00,,,0.00,0.000000,,2013-03-30 06:52:00,
2013-03-30 03:12:00,37.0,27.0,-100.00,NE,45,0.0,2.0,68,0.00,,,0.00,0.000000,,2013-03-30 07:12:00,
2013-03-30 03:22:00,37.0,27.0,-100.00,NE,45,0.0,2.0,68,0.00,,,0.00,0.000000,,2013-03-30 07:22:00,
2013-03-30 03:32:00,37.0,27.0,-100.00,NE,45,0.0,2.0,68,0.00,,,0.00,0.000000,,2013-03-30 07:32:00,
2013-03-30 03:42:00,37.0,27.0,-100.00,NE,45,0.0,2.0,68,0.00,,,0.00,0.000000,,2013-03-30 07:42:00,
2013-03-30 03:52:00,39.0,27.0,-100.00,NE,43,0.0,3.0,63,0.00,,,0.00,0.000000,,2013-03-30 07:52:00,
2013-03-30 04:12:00,39.0,27.0,-100.00,NE,43,0.0,3.0,63,0.00,,,0.00,0.000000,,2013-03-30 08:12:00,
2013-03-30 04:22:00,39.0,27.0,-100.00,NE,43,0.0,3.0,63,0.00,,,0.00,0.000000,,2013-03-30 08:22:00,
2013-03-30 04:32:00,39.0,27.0,-100.00,NE,43,0.0,3.0,63,0.00,,,0.00,0.000000,,2013-03-30 08:32:00,
2013-03-30 04:42:00,39.0,27.0,-100.00,NE,43,0.0,3.0,63,0.00,,,0.00,0.000000,,2013-03-30 08:42:00,
2013-03-30 04:52:00,40.0,24.0,-100.00,SE,141,0.0,6.0,53,0.00,,,0.00,0.000000,,2013-03-30 08:52:00,
2013-03-30 05:23:00,40.0,24.0,-100.00,SE,141,0.0,6.0,53,0.00,,,0.00,0.000000,,2013-03-30 09:23:00,
2013-03-30 05:33:00,40.0,24.0,-100.00,SE,141,0.0,6.0,53,0.00,,,0.00,0.000000,,2013-03-30 09:33:00,
2013-03-30 05:43:00,40.0,24.0,-100.00,SE,141,0.0,6.0,53,0.00,,,0.00,0.000000,,2013-03-30 09:43:00,
2013-03-30 05:52:00,41.0,26.0,-100.00,East,101,1.0,6.0,54,0.00,,,0.00,0.000000,,2013-03-30 09:52:00,
2013-03-30 06:13:00,41.0,26.0,-100.00,East,101,1.0,6.0,54,0.00,,,0.00,0.000000,,2013-03-30 10:13:00,
2013-03-30 06:23:00,41.0,26.0,-100.00,East,101,1.0,6.0,54,0.00,,,0.00,0.000000,,2013-03-30 10:23:00,
2013-03-30 06:33:00,41.0,26.0,-100.00,East,101,1.0,6.0,54,0.00,,,0.00,0.000000,,2013-03-30 10:33:00,
2013-03-30 06:42:00,41.0,26.0,-100.00,East,101,1.0,6.0,54,0.00,,,0.00,0.000000,,2013-03-30 10:42:00,
2013-03-30 06:52:00,40.0,31.0,-100.00,NE,47,0.0,5.0,70,0.00,,,0.00,0.000000,,2013-03-30 10:52:00,
2013-03-30 07:12:00,40.0,31.0,-100.00,NE,47,0.0,5.0,70,0.00,,,0.00,0.000000,,2013-03-30 11:12:00,
2013-03-30 07:23:00,40.0,31.0,-100.00,NE,47,0.0,5.0,70,0.00,,,0.00,0.000000,,2013-03-30 11:23:00,
2013-03-30 07:33:00,40.0,31.0,-100.00,NE,47,0.0,5.0,70,0.00,,,0.00,0.000000,,2013-03-30 11:33:00,
2013-03-30 07:42:00,40.0,31.0,-100.00,NE,47,0.0,5.0,70,0.00,,,0.00,0.000000,,2013-03-30 11:42:00,
2013-03-30 07:52:00,42.0,30.0,-100.00,SE,124,2.0,6.0,63,0.00,,,0.00,20.000000,,2013-03-30 11:52:00,
2013-03-30 08:23:00,42.0,30.0,-100.00,SE,124,2.0,6.0,63,0.00,,,0.00,20.000000,,2013-03-30 12:23:00,
2013-03-30 08:33:00,42.0,30.0,-100.00,SE,124,2.0,6.0,63,0.00,,,0.00,20.000000,,2013-03-30 12:33:00,
2013-03-30 08:42:00,42.0,30.0,-100.00,SE,124,2.0,6.0,63,0.00,,,0.00,20.000000,,2013-03-30 12:42:00,
2013-03-30 08:52:00,48.0,32.0,-100.00,ESE,112,2.0,6.0,53,0.00,,,0.00,142.000000,,2013-03-30 12:52:00,
2013-03-30 09:12:00,48.0,32.0,-100.00,ESE,112,2.0,6.0,53,0.00,,,0.00,142.000000,,2013-03-30 13:12:00,
2013-03-30 09:23:00,48.0,32.0,-100.00,ESE,112,2.0,6.0,53,0.00,,,0.00,142.000000,,2013-03-30 13:23:00,
2013-03-30 09:32:00,48.0,32.0,-100.00,ESE,112,2.0,6.0,53,0.00,,,0.00,142.000000,,2013-03-30 13:32:00,
2013-03-30 09:43:00,48.0,32.0,-100.00,ESE,112,2.0,6.0,53,0.00,,,0.00,142.000000,,2013-03-30 13:43:00,
2013-03-30 09:52:00,58.0,33.0,-100.00,ENE,74,1.0,5.0,38,0.00,,,0.00,346.000000,,2013-03-30 13:52:00,
2013-03-30 10:23:00,58.0,33.0,-100.00,ENE,74,1.0,5.0,38,0.00,,,0.00,346.000000,,2013-03-30 14:23:00,
2013-03-30 10:32:00,58.0,33.0,-100.00,ENE,74,1.0,5.0,38,0.00,,,0.00,346.000000,,2013-03-30 14:32:00,
2013-03-30 10:42:00,58.0,33.0,-100.00,ENE,74,1.0,5.0,38,0.00,,,0.00,346.000000,,2013-03-30 14:42:00,
2013-03-30 10:52:00,63.0,27.0,-100.00,NW,321,3.0,11.0,25,0.00,,,0.00,575.000000,,2013-03-30 14:52:00,
2013-03-30 11:12:00,63.0,27.0,-100.00,NW,321,3.0,11.0,25,0.00,,,0.00,575.000000,,2013-03-30 15:12:00,
2013-03-30 11:23:00,63.0,27.0,-100.00,NW,321,3.0,11.0,25,0.00,,,0.00,575.000000,,2013-03-30 15:23:00,
2013-03-30 11:34:00,63.0,27.0,-100.00,NW,321,3.0,11.0,25,0.00,,,0.00,575.000000,,2013-03-30 15:34:00,
2013-03-30 11:43:00,63.0,27.0,-100.00,NW,321,3.0,11.0,25,0.00,,,0.00,575.000000,,2013-03-30 15:43:00,
2013-03-30 11:52:00,62.0,26.0,-100.00,ESE,106,5.0,12.0,25,0.00,,,0.00,797.000000,,2013-03-30 15:52:00,
2013-03-30 12:13:00,62.0,26.0,-100.00,ESE,106,5.0,12.0,25,0.00,,,0.00,797.000000,,2013-03-30 16:13:00,
2013-03-30 12:23:00,62.0,26.0,-100.00,ESE,106,5.0,12.0,25,0.00,,,0.00,797.000000,,2013-03-30 16:23:00,
2013-03-30 12:33:00,62.0,26.0,-100.00,ESE,106,5.0,12.0,25,0.00,,,0.00,797.000000,,2013-03-30 16:33:00,
2013-03-30 12:43:00,62.0,26.0,-100.00,ESE,106,5.0,12.0,25,0.00,,,0.00,797.000000,,2013-03-30 16:43:00,
2013-03-30 12:52:00,64.0,26.0,-100.00,East,95,6.0,13.0,24,0.00,,,0.00,930.000000,,2013-03-30 16:52:00,
2013-03-30 13:23:00,64.0,26.0,-100.00,East,95,6.0,13.0,24,0.00,,,0.00,930.000000,,2013-03-30 17:23:00,
2013-03-30 13:33:00,64.0,26.0,-100.00,East,95,6.0,13.0,24,0.00,,,0.00,930.000000,,2013-03-30 17:33:00,
2013-03-30 13:42:00,64.0,26.0,-100.00,East,95,6.0,13.0,24,0.00,,,0.00,930.000000,,2013-03-30 17:42:00,
2013-03-30 13:52:00,68.0,28.0,-100.00,NNW,343,2.0,11.0,22,0.00,,,0.00,976.000000,,2013-03-30 17:52:00,
2013-03-30 14:22:00,68.0,28.0,-100.00,NNW,343,2.0,11.0,22,0.00,,,0.00,976.000000,,2013-03-30 18:22:00,
2013-03-30 14:33:00,68.0,28.0,-100.00,NNW,343,2.0,11.0,22,0.00,,,0.00,976.000000,,2013-03-30 18:33:00,
2013-03-30 14:42:00,68.0,28.0,-100.00,NNW,343,2.0,11.0,22,0.00,,,0.00,976.000000,,2013-03-30 18:42:00,
2013-03-30 14:52:00,67.0,26.0,-100.00,NW,317,3.0,11.0,21,0.00,,,0.00,976.000000,,2013-03-30 18:52:00,
2013-03-30 15:13:00,67.0,26.0,-100.00,NW,317,3.0,11.0,21,0.00,,,0.00,976.000000,,2013-03-30 19:13:00,
2013-03-30 15:22:00,67.0,26.0,-100.00,NW,317,3.0,11.0,21,0.00,,,0.00,976.000000,,2013-03-30 19:22:00,
2013-03-30 15:32:00,67.0,26.0,-100.00,NW,317,3.0,11.0,21,0.00,,,0.00,976.000000,,2013-03-30 19:32:00,
2013-03-30 15:42:00,67.0,26.0,-100.00,NW,317,3.0,11.0,21,0.00,,,0.00,976.000000,,2013-03-30 19:42:00,
2013-03-30 15:52:00,69.0,26.0,-100.00,ENE,71,4.0,11.0,20,0.00,,,0.00,849.000000,,2013-03-30 19:52:00,
2013-03-30 16:22:00,69.0,26.0,-100.00,ENE,71,4.0,11.0,20,0.00,,,0.00,849.000000,,2013-03-30 20:22:00,
2013-03-30 16:33:00,69.0,26.0,-100.00,ENE,71,4.0,11.0,20,0.00,,,0.00,849.000000,,2013-03-30 20:33:00,
2013-03-30 16:43:00,69.0,26.0,-100.00,ENE,71,4.0,11.0,20,0.00,,,0.00,849.000000,,2013-03-30 20:43:00,
2013-03-30 16:52:00,67.0,26.0,-100.00,NE,41,4.0,10.0,21,0.00,,,0.00,710.000000,,2013-03-30 20:52:00,
2013-03-30 17:13:00,67.0,26.0,-100.00,NE,41,4.0,10.0,21,0.00,,,0.00,710.000000,,2013-03-30 21:13:00,
2013-03-30 17:23:00,67.0,26.0,-100.00,NE,41,4.0,10.0,21,0.00,,,0.00,710.000000,,2013-03-30 21:23:00,
2013-03-30 17:34:00,67.0,26.0,-100.00,NE,41,4.0,10.0,21,0.00,,,0.00,710.000000,,2013-03-30 21:34:00,
2013-03-30 17:43:00,67.0,26.0,-100.00,NE,41,4.0,10.0,21,0.00,,,0.00,710.000000,,2013-03-30 21:43:00,
2013-03-30 17:52:00,68.0,27.0,-100.00,ENE,70,2.0,10.0,21,0.00,,,0.00,489.000000,,2013-03-30 21:52:00,
2013-03-30 18:13:00,68.0,27.0,-100.00,ENE,70,2.0,10.0,21,0.00,,,0.00,489.000000,,2013-03-30 22:13:00,
2013-03-30 18:23:00,68.0,27.0,-100.00,ENE,70,2.0,10.0,21,0.00,,,0.00,489.000000,,2013-03-30 22:23:00,
2013-03-30 18:33:00,68.0,27.0,-100.00,ENE,70,2.0,10.0,21,0.00,,,0.00,489.000000,,2013-03-30 22:33:00,
2013-03-30 18:43:00,68.0,27.0,-100.00,ENE,70,2.0,10.0,21,0.00,,,0.00,489.000000,,2013-03-30 22:43:00,
2013-03-30 18:52:00,63.0,26.0,-100.00,NNW,333,1.0,6.0,24,0.00,,,0.00,244.000000,,2013-03-30 22:52:00,
2013-03-30 19:13:00,63.0,26.0,-100.00,NNW,333,1.0,6.0,24,0.00,,,0.00,244.000000,,2013-03-30 23:13:00,
2013-03-30 19:22:00,63.0,26.0,-100.00,NNW,333,1.0,6.0,24,0.00,,,0.00,244.000000,,2013-03-30 23:22:00,
2013-03-30 19:33:00,63.0,26.0,-100.00,NNW,333,1.0,6.0,24,0.00,,,0.00,244.000000,,2013-03-30 23:33:00,
2013-03-30 19:42:00,63.0,26.0,-100.00,NNW,333,1.0,6.0,24,0.00,,,0.00,244.000000,,2013-03-30 23:42:00,
2013-03-30 19:52:00,55.0,27.0,-100.00,SW,226,0.0,4.0,34,0.00,,,0.00,16.000000,,2013-03-30 23:52:00,
2013-03-30 20:12:00,55.0,27.0,-100.00,SW,226,0.0,4.0,34,0.00,,,0.00,16.000000,,2013-03-31 00:12:00,
2013-03-30 20:22:00,55.0,27.0,-100.00,SW,226,0.0,4.0,34,0.00,,,0.00,16.000000,,2013-03-31 00:22:00,
2013-03-30 20:32:00,55.0,27.0,-100.00,SW,226,0.0,4.0,34,0.00,,,0.00,16.000000,,2013-03-31 00:32:00,
2013-03-30 20:43:00,55.0,27.0,-100.00,SW,226,0.0,4.0,34,0.00,,,0.00,16.000000,,2013-03-31 00:43:00,
2013-03-30 20:52:00,53.0,28.0,-100.00,SW,233,1.0,25.0,38,0.00,,,0.00,0.000000,,2013-03-31 00:52:00,
2013-03-30 21:22:00,53.0,28.0,-100.00,SW,233,1.0,25.0,38,0.00,,,0.00,0.000000,,2013-03-31 01:22:00,
2013-03-30 21:32:00,53.0,28.0,-100.00,SW,233,1.0,25.0,38,0.00,,,0.00,0.000000,,2013-03-31 01:32:00,
2013-03-30 21:43:00,53.0,28.0,-100.00,SW,233,1.0,25.0,38,0.00,,,0.00,0.000000,,2013-03-31 01:43:00,
2013-03-30 21:52:00,51.0,33.0,-100.00,SW,225,1.0,175.0,50,0.00,,,0.00,0.000000,,2013-03-31 01:52:00,
2013-03-30 22:13:00,51.0,33.0,-100.00,SW,225,1.0,175.0,50,0.00,,,0.00,0.000000,,2013-03-31 02:13:00,
2013-03-30 22:22:00,51.0,33.0,-100.00,SW,225,1.0,175.0,50,0.00,,,0.00,0.000000,,2013-03-31 02:22:00,
2013-03-30 22:33:00,51.0,33.0,-100.00,SW,225,1.0,175.0,50,0.00,,,0.00,0.000000,,2013-03-31 02:33:00,
2013-03-30 22:43:00,51.0,33.0,-100.00,SW,225,1.0,175.0,50,0.00,,,0.00,0.000000,,2013-03-31 02:43:00,
2013-03-30 22:52:00,50.0,29.0,-100.00,WSW,242,2.0,11.0,45,0.00,,,0.00,0.000000,,2013-03-31 02:52:00,
2013-03-30 23:13:00,50.0,29.0,-100.00,WSW,242,2.0,11.0,45,0.00,,,0.00,0.000000,,2013-03-31 03:13:00,
2013-03-30 23:22:00,50.0,29.0,-100.00,WSW,242,2.0,11.0,45,0.00,,,0.00,0.000000,,2013-03-31 03:22:00,
2013-03-30 23:33:00,50.0,29.0,-100.00,WSW,242,2.0,11.0,45,0.00,,,0.00,0.000000,,2013-03-31 03:33:00,
2013-03-30 23:43:00,50.0,29.0,-100.00,WSW,242,2.0,11.0,45,0.00,,,0.00,0.000000,,2013-03-31 03:43:00,
2013-03-30 23:52:00,51.0,33.0,-100.00,WSW,257,0.0,3.0,50,0.00,,,0.00,0.000000,,2013-03-31 03:52:00,